Terminal Aerodrome Forecast
Issued by NWS

Home | Current Version | Previous Version | Text Only | Print | Product List | Glossary On
Versions: 1 2 3 4 5 6 7 8 9 10 11 12 13 14 15 16 17 18 19 20 21 22 23
000
FTUS41 KGYX 302232 AAA
TAFMHT
TAF AMD
KMHT 302232Z 3023/3118 19008KT P6SM SCT015 BKN040
      TEMPO 3023/3102 5SM SHRA BR BKN040 BKN080
     FM310600 22004KT 4SM BR BKN250
     FM311200 27010KT P6SM FEW250=

USA.gov is the U.S. government's official web portal to all federal, state and local government web resources and services.